PWSweather.com
Personal Weather Stations
Station Observations
KCAFRAZI5
West End Drive Area, Frazier Park, CA 93225

West End Drive AreaFrazier Park, CA 93225

Lat: 34.82109, Lon: -118.96053

Elevation: 4940

Station Type: Davis Vantage Pro 2

http://www.fpweather.com

High Low Average
Temperature 50.1°F10.1°F 36.9°F2.7°F 41.6°F5.3°F
Dew Point 43.9°F6.6°F 26.8°F-2.9°F 35.4°F1.9°F
Winds 11.0 mph -17.7 mph - Calm Calm 3.1 mph 5.0 mph
Wind Gusts 17.0 mph27.4 mph -- 7.3 mph11.7 mph
Humidity 100% 43% 80%
Pressure 29.74 in1007.10 in 29.62 in1003.00 in -
Precipitation 1.80 in45.70 in - -
Hour Temp Dew Point Humidity Winds Wind Gusts Pressure Precip Precip Rate Daily Precip Total
12:00 AM 41.2°F5.1°C 37.9°F3.3°C 88% 2.0 mph S3.2 kmh S 4.0 mph6.4 kmh 29.68 in1005.1 mb 0.05 in1.3 mm 0.00 in0.0 mm 0.05 in1.3 mm
12:15 AM 41.1°F5.1°C 37.2°F2.9°C 86% 2.0 mph S3.2 kmh S 4.0 mph6.4 kmh 29.68 in1005.1 mb 0.03 in0.8 mm 0.00 in0.0 mm 0.05 in1.3 mm
12:30 AM 40.9°F4.9°C 37.3°F2.9°C 87% 2.0 mph SSE3.2 kmh SSE 5.0 mph8.0 kmh 29.66 in1004.4 mb 0.01 in0.3 mm 0.00 in0.0 mm 0.05 in1.3 mm
12:45 AM 40.8°F4.9°C 37.5°F3.1°C 88% 1.0 mph SSE1.6 kmh SSE 4.0 mph6.4 kmh 29.67 in1004.7 mb 0.02 in0.5 mm 0.04 in1.0 mm 0.06 in1.5 mm
01:00 AM 40.4°F4.7°C 36.6°F2.6°C 86% 2.0 mph SE3.2 kmh SE 3.0 mph4.8 kmh 29.66 in1004.4 mb 0.04 in1.0 mm 0.03 in0.8 mm 0.08 in2.0 mm
01:15 AM 40.4°F4.7°C 37.4°F3.0°C 89% Calm Calm -- 29.65 in1004.1 mb 0.05 in1.3 mm 0.04 in1.0 mm 0.09 in2.3 mm
01:30 AM 40.1°F4.5°C 37.4°F3.0°C 90% Calm Calm 4.0 mph6.4 kmh 29.66 in1004.4 mb 0.04 in1.0 mm 0.00 in0.0 mm 0.09 in2.3 mm
01:45 AM 39.9°F4.4°C 37.2°F2.9°C 90% 2.0 mph S3.2 kmh S 5.0 mph8.0 kmh 29.65 in1004.1 mb 0.03 in0.8 mm 0.00 in0.0 mm 0.09 in2.3 mm
02:00 AM 40.1°F4.5°C 38.0°F3.3°C 92% Calm Calm 2.0 mph3.2 kmh 29.65 in1004.1 mb 0.01 in0.3 mm 0.00 in0.0 mm 0.09 in2.3 mm
02:15 AM 40.1°F4.5°C 38.2°F3.4°C 93% Calm Calm 2.0 mph3.2 kmh 29.64 in1003.7 mb 0.01 in0.3 mm 0.00 in0.0 mm 0.09 in2.3 mm
02:30 AM 40.1°F4.5°C 38.8°F3.8°C 95% Calm Calm 2.0 mph3.2 kmh 29.65 in1004.1 mb 0.03 in0.8 mm 0.08 in2.0 mm 0.11 in2.8 mm
02:45 AM 39.8°F4.3°C 39.8°F4.3°C 100% 1.0 mph E1.6 kmh E 2.0 mph3.2 kmh 29.64 in1003.7 mb 0.04 in1.0 mm 0.04 in1.0 mm 0.12 in3.0 mm
03:00 AM 39.4°F4.1°C 39.4°F4.1°C 100% Calm Calm 2.0 mph3.2 kmh 29.63 in1003.4 mb 0.05 in1.3 mm 0.01 in0.3 mm 0.13 in3.3 mm
03:15 AM 38.9°F3.8°C 38.9°F3.8°C 100% 1.0 mph S1.6 kmh S 4.0 mph6.4 kmh 29.64 in1003.7 mb 0.06 in1.5 mm 0.04 in1.0 mm 0.14 in3.6 mm
03:30 AM 38.8°F3.8°C 37.0°F2.8°C 93% 2.0 mph SE3.2 kmh SE 4.0 mph6.4 kmh 29.63 in1003.4 mb 0.06 in1.5 mm 0.00 in0.0 mm 0.14 in3.6 mm
03:45 AM 39.4°F4.1°C 35.0°F1.7°C 84% 7.0 mph SSE11.3 kmh SSE 11.0 mph17.7 kmh 29.62 in1003.0 mb 0.05 in1.3 mm 0.00 in0.0 mm 0.14 in3.6 mm
04:00 AM 39.9°F4.4°C 34.2°F1.2°C 80% 1.0 mph S1.6 kmh S 7.0 mph11.3 kmh 29.63 in1003.4 mb 0.03 in0.8 mm 0.00 in0.0 mm 0.14 in3.6 mm
04:15 AM 39.9°F4.4°C 34.9°F1.6°C 82% Calm Calm 4.0 mph6.4 kmh 29.62 in1003.0 mb 0.01 in0.3 mm 0.00 in0.0 mm 0.14 in3.6 mm
04:30 AM 39.9°F4.4°C 35.5°F1.9°C 84% 1.0 mph SE1.6 kmh SE 9.0 mph14.5 kmh 29.66 in1004.4 mb 0.01 in0.3 mm 0.00 in0.0 mm 0.14 in3.6 mm
04:45 AM 39.5°F4.2°C 35.1°F1.7°C 84% Calm Calm 5.0 mph8.0 kmh 29.65 in1004.1 mb 0.01 in0.3 mm 0.00 in0.0 mm 0.14 in3.6 mm
05:00 AM 39.7°F4.3°C 34.7°F1.5°C 82% 2.0 mph S3.2 kmh S 4.0 mph6.4 kmh 29.64 in1003.7 mb 0.01 in0.3 mm 0.00 in0.0 mm 0.14 in3.6 mm
05:15 AM 40.4°F4.7°C 35.0°F1.7°C 81% 9.0 mph SSE14.5 kmh SSE 10.0 mph16.1 kmh 29.64 in1003.7 mb 0.01 in0.3 mm 0.00 in0.0 mm 0.14 in3.6 mm
05:30 AM 40.5°F4.7°C 35.8°F2.1°C 83% Calm Calm 3.0 mph4.8 kmh 29.64 in1003.7 mb 0.01 in0.3 mm 0.00 in0.0 mm 0.14 in3.6 mm
05:45 AM 40.1°F4.5°C 36.6°F2.6°C 87% 2.0 mph E3.2 kmh E 6.0 mph9.7 kmh 29.65 in1004.1 mb 0.02 in0.5 mm 0.04 in1.0 mm 0.15 in3.8 mm
06:00 AM 39.4°F4.1°C 35.9°F2.2°C 87% 2.0 mph E3.2 kmh E 8.0 mph12.9 kmh 29.64 in1003.7 mb 0.02 in0.5 mm 0.00 in0.0 mm 0.15 in3.8 mm
06:15 AM 37.5°F3.1°C 37.5°F3.1°C 100% 4.0 mph NW6.4 kmh NW 7.0 mph11.3 kmh 29.65 in1004.1 mb 0.02 in0.5 mm 0.00 in0.0 mm 0.15 in3.8 mm
06:30 AM 36.9°F2.7°C 36.9°F2.7°C 100% 1.0 mph N1.6 kmh N 5.0 mph8.0 kmh 29.67 in1004.7 mb 0.02 in0.5 mm 0.00 in0.0 mm 0.15 in3.8 mm
06:45 AM 36.9°F2.7°C 36.9°F2.7°C 100% Calm Calm 3.0 mph4.8 kmh 29.67 in1004.7 mb 0.00 in0.0 mm 0.00 in0.0 mm 0.15 in3.8 mm
07:00 AM 37.2°F2.9°C 37.2°F2.9°C 100% Calm Calm -- 29.67 in1004.7 mb 0.01 in0.3 mm 0.01 in0.3 mm 0.16 in4.1 mm
07:15 AM 38.5°F3.6°C 38.5°F3.6°C 100% Calm Calm -- 29.68 in1005.1 mb 0.02 in0.5 mm 0.04 in1.0 mm 0.17 in4.3 mm
07:30 AM 39.8°F4.3°C 39.8°F4.3°C 100% Calm Calm 6.0 mph9.7 kmh 29.67 in1004.7 mb 0.02 in0.5 mm 0.00 in0.0 mm 0.17 in4.3 mm
07:45 AM 40.2°F4.6°C 40.2°F4.6°C 100% Calm Calm 5.0 mph8.0 kmh 29.66 in1004.4 mb 0.02 in0.5 mm 0.00 in0.0 mm 0.17 in4.3 mm
08:00 AM 38.8°F3.8°C 38.8°F3.8°C 100% 6.0 mph NW9.7 kmh NW 10.0 mph16.1 kmh 29.68 in1005.1 mb 0.02 in0.5 mm 0.00 in0.0 mm 0.17 in4.3 mm
08:15 AM 39.7°F4.3°C 39.7°F4.3°C 100% 3.0 mph 4.8 kmh 5.0 mph8.0 kmh 29.68 in1005.1 mb 0.00 in0.0 mm 0.00 in0.0 mm 0.17 in4.3 mm
08:30 AM 40.8°F4.9°C 40.8°F4.9°C 100% 6.0 mph N9.7 kmh N 6.0 mph9.7 kmh 29.67 in1004.7 mb 0.00 in0.0 mm 0.00 in0.0 mm 0.17 in4.3 mm
08:45 AM 40.7°F4.8°C 40.7°F4.8°C 100% 3.0 mph WNW4.8 kmh WNW 9.0 mph14.5 kmh 29.66 in1004.4 mb 0.00 in0.0 mm 0.00 in0.0 mm 0.17 in4.3 mm
09:00 AM 40.5°F4.7°C 40.5°F4.7°C 100% 4.0 mph NNE6.4 kmh NNE 8.0 mph12.9 kmh 29.66 in1004.4 mb 0.00 in0.0 mm 0.00 in0.0 mm 0.17 in4.3 mm
09:15 AM 41.2°F5.1°C 41.2°F5.1°C 100% 6.0 mph 9.7 kmh 8.0 mph12.9 kmh 29.66 in1004.4 mb 0.00 in0.0 mm 0.00 in0.0 mm 0.17 in4.3 mm
09:30 AM 41.2°F5.1°C 41.2°F5.1°C 100% 2.0 mph N3.2 kmh N 8.0 mph12.9 kmh 29.67 in1004.7 mb 0.00 in0.0 mm 0.00 in0.0 mm 0.17 in4.3 mm
09:45 AM 43.4°F6.3°C 43.4°F6.3°C 100% 7.0 mph 11.3 kmh 7.0 mph11.3 kmh 29.67 in1004.7 mb 0.00 in0.0 mm 0.00 in0.0 mm 0.17 in4.3 mm
10:00 AM 42.8°F6.0°C 42.8°F6.0°C 100% 6.0 mph NE9.7 kmh NE 6.0 mph9.7 kmh 29.66 in1004.4 mb 0.00 in0.0 mm 0.00 in0.0 mm 0.17 in4.3 mm
10:15 AM 43.9°F6.6°C 43.9°F6.6°C 100% 5.0 mph W8.0 kmh W 9.0 mph14.5 kmh 29.66 in1004.4 mb 0.00 in0.0 mm 0.00 in0.0 mm 0.17 in4.3 mm
10:30 AM 42.9°F6.1°C 41.8°F5.4°C 96% 2.0 mph N3.2 kmh N 8.0 mph12.9 kmh 29.67 in1004.7 mb 0.00 in0.0 mm 0.00 in0.0 mm 0.17 in4.3 mm
10:45 AM 43.1°F6.2°C 39.5°F4.2°C 87% 2.0 mph 3.2 kmh 6.0 mph9.7 kmh 29.68 in1005.1 mb 0.00 in0.0 mm 0.00 in0.0 mm 0.17 in4.3 mm
11:00 AM 44.4°F6.9°C 40.8°F4.9°C 87% 2.0 mph N3.2 kmh N 6.0 mph9.7 kmh 29.68 in1005.1 mb 0.00 in0.0 mm 0.00 in0.0 mm 0.17 in4.3 mm
11:15 AM 45.6°F7.6°C 32.9°F0.5°C 61% Calm Calm 8.0 mph12.9 kmh 29.69 in1005.4 mb 0.00 in0.0 mm 0.00 in0.0 mm 0.17 in4.3 mm
11:30 AM 46.6°F8.1°C 40.5°F4.7°C 79% 4.0 mph N6.4 kmh N 10.0 mph16.1 kmh 29.68 in1005.1 mb 0.00 in0.0 mm 0.00 in0.0 mm 0.17 in4.3 mm
11:45 AM 47.0°F8.3°C 38.5°F3.6°C 72% 5.0 mph ENE8.0 kmh ENE 11.0 mph17.7 kmh 29.69 in1005.4 mb 0.00 in0.0 mm 0.00 in0.0 mm 0.17 in4.3 mm
12:00 PM 47.0°F8.3°C 39.2°F4.0°C 74% 10.0 mph NE16.1 kmh NE 13.0 mph20.9 kmh 29.67 in1004.7 mb 0.00 in0.0 mm 0.00 in0.0 mm 0.17 in4.3 mm
12:15 PM 47.9°F8.8°C 39.7°F4.3°C 73% 6.0 mph NNE9.7 kmh NNE 7.0 mph11.3 kmh 29.68 in1005.1 mb 0.00 in0.0 mm 0.00 in0.0 mm 0.17 in4.3 mm
12:30 PM 48.4°F9.1°C 40.2°F4.6°C 73% 2.0 mph N3.2 kmh N 12.0 mph19.3 kmh 29.66 in1004.4 mb 0.00 in0.0 mm 0.00 in0.0 mm 0.17 in4.3 mm
12:45 PM 48.1°F8.9°C 39.2°F4.0°C 71% 7.0 mph N11.3 kmh N 11.0 mph17.7 kmh 29.67 in1004.7 mb 0.00 in0.0 mm 0.00 in0.0 mm 0.17 in4.3 mm
01:00 PM 45.8°F7.7°C 37.0°F2.8°C 71% 5.0 mph NE8.0 kmh NE 9.0 mph14.5 kmh 29.67 in1004.7 mb 0.00 in0.0 mm 0.00 in0.0 mm 0.17 in4.3 mm
01:15 PM 45.6°F7.6°C 36.8°F2.7°C 71% Calm Calm 4.0 mph6.4 kmh 29.67 in1004.7 mb 0.00 in0.0 mm 0.00 in0.0 mm 0.17 in4.3 mm
01:30 PM 46.4°F8.0°C 34.5°F1.4°C 63% 5.0 mph SSW8.0 kmh SSW 7.0 mph11.3 kmh 29.67 in1004.7 mb 0.00 in0.0 mm 0.00 in0.0 mm 0.17 in4.3 mm
01:45 PM 46.7°F8.2°C 33.2°F0.7°C 59% 1.0 mph SSE1.6 kmh SSE 8.0 mph12.9 kmh 29.68 in1005.1 mb 0.00 in0.0 mm 0.00 in0.0 mm 0.17 in4.3 mm
02:00 PM 48.1°F8.9°C 31.8°F-0.1°C 53% 3.0 mph SE4.8 kmh SE 7.0 mph11.3 kmh 29.67 in1004.7 mb 0.00 in0.0 mm 0.00 in0.0 mm 0.17 in4.3 mm
02:15 PM 49.0°F9.4°C 32.6°F0.3°C 53% 4.0 mph WNW6.4 kmh WNW 5.0 mph8.0 kmh 29.66 in1004.4 mb 0.00 in0.0 mm 0.00 in0.0 mm 0.17 in4.3 mm
02:30 PM 50.1°F10.1°C 28.5°F-1.9°C 43% Calm Calm 3.0 mph4.8 kmh 29.66 in1004.4 mb 0.00 in0.0 mm 0.00 in0.0 mm 0.17 in4.3 mm
02:45 PM 49.4°F9.7°C 33.9°F1.1°C 55% 3.0 mph WSW4.8 kmh WSW 9.0 mph14.5 kmh 29.65 in1004.1 mb 0.00 in0.0 mm 0.00 in0.0 mm 0.17 in4.3 mm
03:00 PM 48.7°F9.3°C 32.8°F0.4°C 54% 5.0 mph SSE8.0 kmh SSE 12.0 mph19.3 kmh 29.65 in1004.1 mb 0.00 in0.0 mm 0.00 in0.0 mm 0.17 in4.3 mm
03:15 PM 48.4°F9.1°C 31.6°F-0.2°C 52% 6.0 mph SE9.7 kmh SE 7.0 mph11.3 kmh 29.66 in1004.4 mb 0.00 in0.0 mm 0.00 in0.0 mm 0.17 in4.3 mm
03:30 PM 48.5°F9.2°C 29.2°F-1.6°C 47% 6.0 mph SE9.7 kmh SE 8.0 mph12.9 kmh 29.65 in1004.1 mb 0.00 in0.0 mm 0.00 in0.0 mm 0.17 in4.3 mm
03:45 PM 48.2°F9.0°C 30.5°F-0.8°C 50% 2.0 mph SSE3.2 kmh SSE 11.0 mph17.7 kmh 29.64 in1003.7 mb 0.00 in0.0 mm 0.00 in0.0 mm 0.17 in4.3 mm
04:00 PM 48.2°F9.0°C 35.4°F1.9°C 61% 5.0 mph S8.0 kmh S 9.0 mph14.5 kmh 29.64 in1003.7 mb 0.00 in0.0 mm 0.00 in0.0 mm 0.17 in4.3 mm
04:15 PM 46.6°F8.1°C 33.5°F0.8°C 60% Calm Calm 14.0 mph22.5 kmh 29.64 in1003.7 mb 0.00 in0.0 mm 0.00 in0.0 mm 0.17 in4.3 mm
04:30 PM 42.8°F6.0°C 34.1°F1.2°C 71% 6.0 mph S9.7 kmh S 13.0 mph20.9 kmh 29.65 in1004.1 mb 0.02 in0.5 mm 0.08 in2.0 mm 0.19 in4.8 mm
04:45 PM 41.4°F5.2°C 36.0°F2.2°C 81% 1.0 mph S1.6 kmh S 5.0 mph8.0 kmh 29.68 in1005.1 mb 0.07 in1.8 mm 0.20 in5.1 mm 0.24 in6.1 mm
05:00 PM 41.7°F5.4°C 36.0°F2.2°C 80% 1.0 mph S1.6 kmh S 5.0 mph8.0 kmh 29.67 in1004.7 mb 0.07 in1.8 mm 0.00 in0.0 mm 0.24 in6.1 mm
05:15 PM 41.2°F5.1°C 35.2°F1.8°C 79% 10.0 mph S16.1 kmh S 11.0 mph17.7 kmh 29.67 in1004.7 mb 0.09 in2.3 mm 0.08 in2.0 mm 0.26 in6.6 mm
05:30 PM 40.4°F4.7°C 35.0°F1.7°C 81% 6.0 mph S9.7 kmh S 13.0 mph20.9 kmh 29.68 in1005.1 mb 0.11 in2.8 mm 0.08 in2.0 mm 0.28 in7.1 mm
05:45 PM 39.8°F4.3°C 34.8°F1.6°C 82% 7.0 mph SSE11.3 kmh SSE 13.0 mph20.9 kmh 29.69 in1005.4 mb 0.11 in2.8 mm 0.00 in0.0 mm 0.28 in7.1 mm
06:00 PM 39.8°F4.3°C 35.7°F2.1°C 85% Calm Calm 6.0 mph9.7 kmh 29.70 in1005.8 mb 0.13 in3.3 mm 0.03 in0.8 mm 0.30 in7.6 mm
06:15 PM 40.1°F4.5°C 34.8°F1.6°C 81% 4.0 mph S6.4 kmh S 7.0 mph11.3 kmh 29.69 in1005.4 mb 0.12 in3.0 mm 0.00 in0.0 mm 0.30 in7.6 mm
06:30 PM 40.2°F4.6°C 34.5°F1.4°C 80% 4.0 mph SSE6.4 kmh SSE 7.0 mph11.3 kmh 29.69 in1005.4 mb 0.10 in2.5 mm 0.00 in0.0 mm 0.30 in7.6 mm
06:45 PM 39.7°F4.3°C 35.0°F1.7°C 83% 3.0 mph SSE4.8 kmh SSE 6.0 mph9.7 kmh 29.69 in1005.4 mb 0.06 in1.5 mm 0.00 in0.0 mm 0.30 in7.6 mm
07:00 PM 40.4°F4.7°C 34.4°F1.3°C 79% 5.0 mph SSE8.0 kmh SSE 12.0 mph19.3 kmh 29.69 in1005.4 mb 0.01 in0.3 mm 0.00 in0.0 mm 0.30 in7.6 mm
07:15 PM 40.7°F4.8°C 33.7°F0.9°C 76% 5.0 mph SSE8.0 kmh SSE 9.0 mph14.5 kmh 29.69 in1005.4 mb 0.01 in0.3 mm 0.00 in0.0 mm 0.30 in7.6 mm
07:30 PM 40.2°F4.6°C 33.6°F0.9°C 77% 4.0 mph ESE6.4 kmh ESE 9.0 mph14.5 kmh 29.69 in1005.4 mb 0.01 in0.3 mm 0.00 in0.0 mm 0.30 in7.6 mm
07:45 PM 39.8°F4.3°C 31.9°F-0.1°C 73% 5.0 mph S8.0 kmh S 11.0 mph17.7 kmh 29.69 in1005.4 mb 0.00 in0.0 mm 0.00 in0.0 mm 0.30 in7.6 mm
08:00 PM 39.4°F4.1°C 32.8°F0.4°C 77% 11.0 mph SE17.7 kmh SE 17.0 mph27.4 kmh 29.71 in1006.1 mb 0.00 in0.0 mm 0.00 in0.0 mm 0.30 in7.6 mm
08:15 PM 39.4°F4.1°C 31.1°F-0.5°C 72% 5.0 mph S8.0 kmh S 14.0 mph22.5 kmh 29.71 in1006.1 mb 0.01 in0.3 mm 0.04 in1.0 mm 0.31 in7.9 mm
08:30 PM 39.1°F3.9°C 30.9°F-0.6°C 72% 6.0 mph S9.7 kmh S 13.0 mph20.9 kmh 29.70 in1005.8 mb 0.01 in0.3 mm 0.00 in0.0 mm 0.31 in7.9 mm
08:45 PM 38.9°F3.8°C 30.0°F-1.1°C 70% 3.0 mph SSE4.8 kmh SSE 6.0 mph9.7 kmh 29.72 in1006.4 mb 0.01 in0.3 mm 0.00 in0.0 mm 0.31 in7.9 mm
09:00 PM 38.7°F3.7°C 29.4°F-1.4°C 69% 5.0 mph SE8.0 kmh SE 7.0 mph11.3 kmh 29.73 in1006.8 mb 0.01 in0.3 mm 0.00 in0.0 mm 0.31 in7.9 mm
09:15 PM 38.7°F3.7°C 29.4°F-1.4°C 69% Calm Calm 7.0 mph11.3 kmh 29.73 in1006.8 mb 0.01 in0.3 mm 0.00 in0.0 mm 0.31 in7.9 mm
09:30 PM 38.7°F3.7°C 28.7°F-1.8°C 67% Calm Calm 10.0 mph16.1 kmh 29.72 in1006.4 mb 0.00 in0.0 mm 0.00 in0.0 mm 0.31 in7.9 mm
09:45 PM 38.5°F3.6°C 28.5°F-1.9°C 67% 3.0 mph SSE4.8 kmh SSE 7.0 mph11.3 kmh 29.72 in1006.4 mb 0.00 in0.0 mm 0.00 in0.0 mm 0.31 in7.9 mm
10:00 PM 38.5°F3.6°C 28.1°F-2.2°C 66% 2.0 mph SSE3.2 kmh SSE 7.0 mph11.3 kmh 29.73 in1006.8 mb 0.00 in0.0 mm 0.00 in0.0 mm 0.31 in7.9 mm
10:15 PM 38.4°F3.6°C 28.8°F-1.8°C 68% 3.0 mph S4.8 kmh S 8.0 mph12.9 kmh 29.73 in1006.8 mb 0.00 in0.0 mm 0.00 in0.0 mm 0.31 in7.9 mm
10:30 PM 38.2°F3.4°C 27.5°F-2.5°C 65% 3.0 mph S4.8 kmh S 9.0 mph14.5 kmh 29.73 in1006.8 mb 0.00 in0.0 mm 0.00 in0.0 mm 0.31 in7.9 mm
10:45 PM 37.8°F3.2°C 28.9°F-1.7°C 70% 7.0 mph S11.3 kmh S 11.0 mph17.7 kmh 29.73 in1006.8 mb 0.00 in0.0 mm 0.00 in0.0 mm 0.31 in7.9 mm
11:00 PM 38.1°F3.4°C 27.4°F-2.6°C 65% 3.0 mph S4.8 kmh S 10.0 mph16.1 kmh 29.73 in1006.8 mb 0.00 in0.0 mm 0.00 in0.0 mm 0.31 in7.9 mm
11:15 PM 37.9°F3.3°C 27.2°F-2.7°C 65% Calm Calm 10.0 mph16.1 kmh 29.74 in1007.1 mb 0.00 in0.0 mm 0.00 in0.0 mm 0.31 in7.9 mm
11:30 PM 37.9°F3.3°C 26.8°F-2.9°C 64% 2.0 mph SE3.2 kmh SE 6.0 mph9.7 kmh 29.73 in1006.8 mb 0.00 in0.0 mm 0.00 in0.0 mm 0.31 in7.9 mm
11:45 PM 38.1°F3.4°C 27.0°F-2.8°C 64% 7.0 mph S11.3 kmh S 8.0 mph12.9 kmh 29.72 in1006.4 mb 0.00 in0.0 mm 0.00 in0.0 mm 0.31 in7.9 mm